createdAt,value
2022-08-19T00:01:30.454Z,98682.63
2022-08-19T00:04:00.021Z,98689.09
2022-08-19T00:06:28.277Z,98691.66
2022-08-19T00:08:56.320Z,98698.16
2022-08-19T00:11:26.002Z,98701.53
2022-08-19T00:13:54.069Z,98692.22
2022-08-19T00:16:26.915Z,98700.16
2022-08-19T00:18:56.197Z,98691.25
2022-08-19T00:21:24.076Z,98694.63
2022-08-19T00:23:51.862Z,98695.06
2022-08-19T00:26:19.607Z,98691.97
2022-08-19T00:28:47.551Z,98687.44
2022-08-19T00:31:17.151Z,98685.50
2022-08-19T00:33:46.194Z,98683.09
2022-08-19T00:36:13.981Z,98680.69
2022-08-19T00:38:43.834Z,98685.34
2022-08-19T00:41:14.141Z,98680.97
2022-08-19T00:43:42.182Z,98680.13
2022-08-19T00:46:10.165Z,98684.78
2022-08-19T00:48:38.174Z,98683.66
2022-08-19T00:51:07.901Z,98685.34
2022-08-19T00:53:36.006Z,98679.16
2022-08-19T00:56:07.071Z,98678.56
2022-08-19T00:58:35.807Z,98670.84
2022-08-19T01:01:04.250Z,98663.06
2022-08-19T01:03:57.296Z,98651.22
2022-08-19T01:06:21.018Z,98641.78
2022-08-19T01:08:50.156Z,98654.63
2022-08-19T01:11:18.492Z,98646.84
2022-08-19T01:13:50.003Z,98652.50
2022-08-19T01:16:19.187Z,98660.81
2022-08-19T01:18:46.936Z,98650.81
2022-08-19T01:21:20.510Z,98647.69
2022-08-19T01:23:49.842Z,98648.94
2022-08-19T01:26:20.198Z,98645.72
2022-08-19T01:28:51.036Z,98633.19
2022-08-19T01:31:26.776Z,98639.66
2022-08-19T01:33:57.777Z,98629.81
2022-08-19T01:36:29.290Z,98640.38
2022-08-19T01:38:59.020Z,98637.28
2022-08-19T01:41:27.116Z,98642.50
2022-08-19T01:44:09.761Z,98653.19
2022-08-19T01:46:42.900Z,98661.66
2022-08-19T01:49:11.056Z,98672.38
2022-08-19T01:51:39.694Z,98670.69
2022-08-19T01:54:09.593Z,98666.31
2022-08-19T01:56:37.630Z,98655.59
2022-08-19T01:59:07.634Z,98650.38
2022-08-19T02:01:35.631Z,98649.25
2022-08-19T02:04:04.391Z,98654.06
2022-08-19T02:06:32.221Z,98652.50
2022-08-19T02:08:59.953Z,98655.47
2022-08-19T02:11:32.286Z,98656.88
2022-08-19T02:14:00.387Z,98658.97
2022-08-19T02:16:28.104Z,98651.38
2022-08-19T02:18:56.204Z,98656.44
2022-08-19T02:21:25.122Z,98653.06
2022-08-19T02:23:53.159Z,98655.16
2022-08-19T02:26:20.884Z,98655.75
2022-08-19T02:28:50.122Z,98645.88
2022-08-19T02:31:19.638Z,98658.69
2022-08-19T02:33:47.797Z,98647.56
2022-08-19T02:36:20.665Z,98651.94
2022-08-19T02:38:54.790Z,98661.66
2022-08-19T02:41:26.601Z,98654.47
2022-08-19T02:44:26.448Z,98671.50
2022-08-19T02:46:45.048Z,98673.19
2022-08-19T02:49:12.728Z,98673.47
2022-08-19T02:51:43.553Z,98670.66
2022-08-19T02:54:12.142Z,98666.59
2022-08-19T02:56:41.603Z,98666.44
2022-08-19T02:59:12.549Z,98663.63
2022-08-19T03:01:43.063Z,98669.53
2022-08-19T03:04:12.939Z,98666.16
2022-08-19T03:06:41.925Z,98657.41
2022-08-19T03:09:09.790Z,98664.31
2022-08-19T03:11:37.843Z,98663.34
2022-08-19T03:14:07.076Z,98661.06
2022-08-19T03:16:42.313Z,98661.06
2022-08-19T03:19:10.079Z,98663.59
2022-08-19T03:21:37.772Z,98668.25
2022-08-19T03:24:07.681Z,98665.28
2022-08-19T03:26:36.086Z,98670.06
2022-08-19T03:29:08.652Z,98662.72
2022-08-19T03:31:45.626Z,98673.66
2022-08-19T03:34:23.070Z,98676.91
2022-08-19T03:36:50.879Z,98678.72
2022-08-19T03:39:18.915Z,98680.13
2022-08-19T03:41:48.609Z,98674.06
2022-08-19T03:44:18.945Z,98676.03
2022-08-19T03:46:49.617Z,98673.38
2022-08-19T03:49:18.197Z,98678.16
2022-08-19T03:51:47.812Z,98685.19
2022-08-19T03:54:17.404Z,98686.16
2022-08-19T03:56:46.933Z,98695.31
2022-08-19T03:59:16.848Z,98696.28
2022-08-19T04:01:45.049Z,98691.66
2022-08-19T04:04:14.290Z,98700.81
2022-08-19T04:06:42.713Z,98697.75
2022-08-19T04:09:12.136Z,98705.31
2022-08-19T04:11:44.291Z,98701.06
2022-08-19T04:14:13.818Z,98701.88
2022-08-19T04:16:47.220Z,98702.19
2022-08-19T04:19:17.692Z,98709.75
2022-08-19T04:21:46.481Z,98695.69
2022-08-19T04:24:14.545Z,98701.34
2022-08-19T04:26:42.857Z,98712.56
2022-08-19T04:29:12.964Z,98700.16
2022-08-19T04:31:42.105Z,98696.75
2022-08-19T04:34:12.199Z,98698.00
2022-08-19T04:36:45.463Z,98694.22
2022-08-19T04:39:15.221Z,98688.88
2022-08-19T04:42:00.374Z,98702.50
2022-08-19T04:44:31.495Z,98705.13
2022-08-19T04:47:01.468Z,98692.75
2022-08-19T04:49:31.016Z,98687.84
2022-08-19T04:52:00.096Z,98687.66
2022-08-19T04:54:37.978Z,98690.16
2022-08-19T04:57:09.706Z,98691.13
2022-08-19T04:59:38.394Z,98695.25
2022-08-19T05:02:06.787Z,98704.41
2022-08-19T05:04:35.185Z,98703.69
2022-08-19T05:07:04.241Z,98708.34
2022-08-19T05:09:53.288Z,98699.47
2022-08-19T05:12:20.399Z,98700.75
2022-08-19T05:14:48.828Z,98692.94
2022-08-19T05:17:36.292Z,98711.09
2022-08-19T05:20:23.522Z,98709.69
2022-08-19T05:22:53.433Z,98710.84
2022-08-19T05:25:23.315Z,98708.59
2022-08-19T05:27:51.497Z,98709.63
2022-08-19T05:30:33.597Z,98698.84
2022-08-19T05:33:07.412Z,98706.59
2022-08-19T05:35:35.098Z,98701.41
2022-08-19T05:38:04.182Z,98700.88
2022-08-19T05:40:31.958Z,98704.13
2022-08-19T05:42:59.844Z,98710.78
2022-08-19T05:45:28.800Z,98715.84
2022-08-19T05:47:56.824Z,98709.06
2022-08-19T05:50:24.599Z,98714.84
2022-08-19T05:52:52.661Z,98716.97
2022-08-19T05:55:23.106Z,98708.25
2022-08-19T05:57:50.854Z,98715.88
2022-08-19T06:00:22.716Z,98728.25
2022-08-19T06:02:53.154Z,98733.34
2022-08-19T06:05:21.121Z,98752.53
2022-08-19T06:07:48.832Z,98747.91
2022-08-19T06:10:16.711Z,98742.69
2022-08-19T06:12:45.890Z,98745.53
2022-08-19T06:15:15.307Z,98753.28
2022-08-19T06:17:45.264Z,98760.78
2022-08-19T06:20:15.229Z,98760.78
2022-08-19T06:22:44.245Z,98773.63
2022-08-19T06:25:12.469Z,98779.25
2022-08-19T06:27:58.534Z,98788.00
2022-08-19T06:30:29.844Z,98778.09
2022-08-19T06:32:57.474Z,98786.28
2022-08-19T06:35:26.295Z,98789.50
2022-08-19T06:37:54.639Z,98800.94
2022-08-19T06:40:22.625Z,98803.34
2022-08-19T06:42:54.939Z,98812.19
2022-08-19T06:45:24.820Z,98805.41
2022-08-19T06:47:56.739Z,98800.59
2022-08-19T06:50:24.992Z,98798.50
2022-08-19T06:52:53.383Z,98800.06
2022-08-19T06:55:21.609Z,98809.66
2022-08-19T06:57:49.452Z,98795.84
2022-08-19T07:00:18.025Z,98803.88
2022-08-19T07:02:50.673Z,98813.19
2022-08-19T07:05:24.687Z,98796.91
2022-08-19T07:07:52.392Z,98806.81
2022-08-19T07:10:20.382Z,98797.34
2022-08-19T07:12:48.587Z,98803.38
2022-08-19T07:15:16.812Z,98806.63
2022-08-19T07:17:47.997Z,98810.06
2022-08-19T07:20:20.521Z,98803.03
2022-08-19T07:22:50.375Z,98798.25
2022-08-19T07:25:18.807Z,98804.38
2022-08-19T07:27:48.710Z,98795.03
2022-08-19T07:30:23.297Z,98795.03
2022-08-19T07:32:54.288Z,98794.88
2022-08-19T07:35:22.045Z,98795.66
2022-08-19T07:40:18.702Z,98804.44
2022-08-19T07:42:46.345Z,98801.59
2022-08-19T07:45:14.361Z,98805.75
2022-08-19T07:47:58.450Z,98807.13
2022-08-19T07:50:26.616Z,98801.22
2022-08-19T07:52:55.705Z,98806.88
2022-08-19T07:55:41.061Z,98802.19
2022-08-19T07:58:11.958Z,98806.31
2022-08-19T08:00:39.911Z,98795.88
2022-08-19T08:03:07.641Z,98805.16
2022-08-19T08:05:52.587Z,98800.44
2022-08-19T08:08:44.305Z,98800.38
2022-08-19T08:11:17.986Z,98810.09
2022-08-19T08:14:01.359Z,98809.28
2022-08-19T08:16:32.856Z,98800.91
2022-08-19T08:19:02.472Z,98805.91
2022-08-19T08:21:35.528Z,98809.09
2022-08-19T08:24:05.151Z,98817.69
2022-08-19T08:26:34.545Z,98810.41
2022-08-19T08:29:02.442Z,98812.56
2022-08-19T08:31:38.661Z,98810.91
2022-08-19T08:34:06.327Z,98820.47
2022-08-19T08:36:34.539Z,98814.78
2022-08-19T08:39:02.701Z,98823.69
2022-08-19T08:41:37.704Z,98800.78
2022-08-19T08:44:06.189Z,98819.81
2022-08-19T08:46:39.608Z,98818.59
2022-08-19T08:49:18.218Z,98821.25
2022-08-19T08:51:59.729Z,98818.75
2022-08-19T08:54:32.907Z,98832.47
2022-08-19T08:57:06.926Z,98829.78
2022-08-19T08:59:37.918Z,98825.50
2022-08-19T09:02:05.873Z,98824.97
2022-08-19T09:04:34.116Z,98828.91
2022-08-19T09:07:18.634Z,98833.81
2022-08-19T09:10:07.302Z,98835.03
2022-08-19T09:12:50.080Z,98833.69
2022-08-19T09:15:21.148Z,98842.78
2022-08-19T09:18:02.866Z,98840.94
2022-08-19T09:20:32.350Z,98848.25
2022-08-19T09:23:00.856Z,98846.06
2022-08-19T09:25:29.493Z,98845.38
2022-08-19T09:28:05.651Z,98836.22
2022-08-19T09:30:43.440Z,98836.25
2022-08-19T09:33:11.385Z,98829.84
2022-08-19T09:35:50.094Z,98824.13
2022-08-19T09:38:21.736Z,98819.19
2022-08-19T09:40:50.509Z,98818.16
2022-08-19T09:43:33.041Z,98820.38
2022-08-19T09:46:02.236Z,98815.50
2022-08-19T09:48:29.992Z,98806.75
2022-08-19T09:51:04.875Z,98814.28
2022-08-19T09:53:32.743Z,98811.09
2022-08-19T09:56:04.195Z,98803.09
2022-08-19T09:58:33.597Z,98803.41
2022-08-19T10:01:03.412Z,98800.31
2022-08-19T10:03:32.481Z,98797.03
2022-08-19T10:06:01.894Z,98801.06
2022-08-19T10:08:32.056Z,98802.09
2022-08-19T10:10:59.928Z,98799.78
2022-08-19T10:13:49.741Z,98798.72
2022-08-19T10:16:20.102Z,98804.38
2022-08-19T10:18:49.766Z,98807.53
2022-08-19T10:21:20.226Z,98800.25
2022-08-19T10:23:49.782Z,98795.41
2022-08-19T10:26:21.583Z,98796.59
2022-08-19T10:28:51.114Z,98788.59
2022-08-19T10:32:00.346Z,98777.19
2022-08-19T10:34:27.063Z,98785.72
2022-08-19T10:37:00.443Z,98787.94
2022-08-19T10:39:30.977Z,98781.97
2022-08-19T10:41:59.514Z,98784.69
2022-08-19T10:44:32.272Z,98783.19
2022-08-19T10:47:01.346Z,98784.38
2022-08-19T10:49:29.442Z,98784.50
2022-08-19T10:52:18.798Z,98788.97
2022-08-19T10:55:08.531Z,98779.84
2022-08-19T11:00:27.020Z,98783.38
2022-08-19T11:02:55.042Z,98779.38
2022-08-19T11:05:24.278Z,98768.94
2022-08-19T11:07:53.019Z,98766.56
2022-08-19T11:10:22.067Z,98776.19
2022-08-19T11:12:55.207Z,98774.88
2022-08-19T11:15:25.506Z,98770.22
2022-08-19T11:17:55.554Z,98759.88
2022-08-19T11:20:24.513Z,98762.00
2022-08-19T11:22:53.687Z,98754.13
2022-08-19T11:25:21.476Z,98755.38
2022-08-19T11:27:51.918Z,98749.41
2022-08-19T11:30:19.676Z,98749.63
2022-08-19T11:32:49.638Z,98748.59
2022-08-19T11:35:17.695Z,98746.44
2022-08-19T11:37:45.397Z,98746.94
2022-08-19T11:40:13.827Z,98745.63
2022-08-19T11:42:57.175Z,98737.81
2022-08-19T11:45:25.213Z,98734.31
2022-08-19T11:47:54.552Z,98724.75
2022-08-19T11:50:24.268Z,98724.94
2022-08-19T11:52:52.440Z,98719.56
2022-08-19T11:55:20.250Z,98712.28
2022-08-19T11:57:48.044Z,98719.06
2022-08-19T12:00:16.406Z,98715.22
2022-08-19T12:02:44.396Z,98709.69
2022-08-19T12:05:13.483Z,98704.91
2022-08-19T12:07:44.595Z,98701.50
2022-08-19T12:10:12.804Z,98709.44
2022-08-19T12:12:43.257Z,98715.38
2022-08-19T12:15:12.967Z,98714.16
2022-08-19T12:17:41.108Z,98707.81
2022-08-19T12:20:11.262Z,98697.09
2022-08-19T12:22:40.302Z,98700.34
2022-08-19T12:25:09.275Z,98702.72
2022-08-19T12:27:40.256Z,98697.16
2022-08-19T12:30:12.141Z,98700.94
2022-08-19T12:32:41.404Z,98704.19
2022-08-19T12:35:10.041Z,98700.06
2022-08-19T12:37:37.939Z,98704.06
2022-08-19T12:40:08.626Z,98702.00
2022-08-19T12:42:36.578Z,98712.25
2022-08-19T12:45:04.898Z,98696.31
2022-08-19T12:47:34.327Z,98704.09
2022-08-19T12:50:09.570Z,98690.88
2022-08-19T12:52:38.690Z,98690.63
2022-08-19T12:55:09.950Z,98696.88
2022-08-19T12:57:37.784Z,98697.63
2022-08-19T13:00:11.401Z,98694.88
2022-08-19T13:02:39.794Z,98692.97
2022-08-19T13:05:10.750Z,98682.44
2022-08-19T13:07:39.454Z,98687.78
2022-08-19T13:10:12.040Z,98685.97
2022-08-19T13:12:40.112Z,98690.53
2022-08-19T13:15:11.273Z,98688.25
2022-08-19T13:17:39.723Z,98690.69
2022-08-19T13:20:09.764Z,98687.38
2022-08-19T13:22:38.094Z,98692.47
2022-08-19T13:25:06.596Z,98694.75
2022-08-19T13:27:36.000Z,98700.28
2022-08-19T13:30:23.041Z,98705.00
2022-08-19T13:33:08.403Z,98706.22
2022-08-19T13:35:36.509Z,98711.25
2022-08-19T13:38:05.739Z,98711.28
2022-08-19T13:40:37.344Z,98697.16
2022-08-19T13:43:17.692Z,98702.66
2022-08-19T13:45:51.702Z,98693.09
2022-08-19T13:48:19.673Z,98694.38
2022-08-19T13:50:48.991Z,98693.50
2022-08-19T13:53:17.611Z,98696.53
2022-08-19T13:55:45.704Z,98695.75
2022-08-19T13:58:15.398Z,98703.72
2022-08-19T14:00:45.712Z,98706.13
2022-08-19T14:03:14.219Z,98703.16
2022-08-19T14:05:42.014Z,98706.81
2022-08-19T14:08:10.229Z,98708.97
2022-08-19T14:10:37.919Z,98706.03
2022-08-19T14:13:05.946Z,98720.50
2022-08-19T14:15:35.139Z,98714.88
2022-08-19T14:18:03.209Z,98713.53
2022-08-19T14:20:30.866Z,98709.28
2022-08-19T14:22:58.688Z,98715.56
2022-08-19T14:25:28.207Z,98714.38
2022-08-19T14:27:56.747Z,98716.44
2022-08-19T14:30:27.730Z,98716.66
2022-08-19T14:32:56.890Z,98716.41
2022-08-19T14:35:25.003Z,98716.53
2022-08-19T14:37:54.822Z,98705.59
2022-08-19T14:40:26.656Z,98703.91
2022-08-19T14:42:59.941Z,98707.47
2022-08-19T14:45:29.068Z,98697.03
2022-08-19T14:48:00.563Z,98695.91
2022-08-19T14:50:28.589Z,98691.34
2022-08-19T14:53:00.938Z,98686.59
2022-08-19T14:55:28.894Z,98697.31
2022-08-19T14:57:56.746Z,98691.84
2022-08-19T15:00:26.262Z,98679.84
2022-08-19T15:02:55.499Z,98675.91
2022-08-19T15:05:25.051Z,98677.00
2022-08-19T15:07:52.723Z,98675.22
2022-08-19T15:10:20.537Z,98675.53
2022-08-19T15:12:51.685Z,98674.69
2022-08-19T15:15:20.777Z,98668.53
2022-08-19T15:17:48.524Z,98661.31
2022-08-19T15:20:19.999Z,98659.72
2022-08-19T15:22:49.372Z,98659.88
2022-08-19T15:25:19.330Z,98659.47
2022-08-19T15:27:47.145Z,98652.84
2022-08-19T15:30:21.970Z,98651.75
2022-08-19T15:32:49.695Z,98654.75
2022-08-19T15:35:19.282Z,98659.19
2022-08-19T15:37:47.025Z,98653.41
2022-08-19T15:40:16.213Z,98656.22
2022-08-19T15:42:44.643Z,98653.59
2022-08-19T15:45:13.391Z,98656.63
2022-08-19T15:47:41.904Z,98657.00
2022-08-19T15:50:13.614Z,98661.91
2022-08-19T15:52:50.049Z,98657.50
2022-08-19T15:55:33.341Z,98669.19
2022-08-19T15:58:27.729Z,98660.91
2022-08-19T16:01:14.737Z,98669.69
2022-08-19T16:03:59.829Z,98669.56
2022-08-19T16:06:27.782Z,98664.63
2022-08-19T16:08:56.254Z,98662.44
2022-08-19T16:11:30.416Z,98664.81
2022-08-19T16:13:59.401Z,98666.50
2022-08-19T16:16:31.021Z,98666.25
2022-08-19T16:19:03.794Z,98670.72
2022-08-19T16:21:33.390Z,98676.84
2022-08-19T16:24:03.531Z,98674.50
2022-08-19T16:26:33.441Z,98679.56
2022-08-19T16:29:02.598Z,98681.88
2022-08-19T16:31:31.078Z,98673.50
2022-08-19T16:33:59.249Z,98673.88
2022-08-19T16:36:28.374Z,98679.78
2022-08-19T16:38:56.662Z,98681.25
2022-08-19T16:41:28.702Z,98681.94
2022-08-19T16:43:58.497Z,98685.00
2022-08-19T16:46:27.659Z,98687.53
2022-08-19T16:48:55.652Z,98688.06
2022-08-19T16:51:23.616Z,98689.06
2022-08-19T16:53:52.919Z,98689.59
2022-08-19T16:56:21.336Z,98696.16
2022-08-19T16:58:50.534Z,98696.94
2022-08-19T17:01:19.818Z,98704.28
2022-08-19T17:03:50.383Z,98699.69
2022-08-19T17:06:20.796Z,98697.88
2022-08-19T17:08:49.762Z,98696.59
2022-08-19T17:11:18.896Z,98695.34
2022-08-19T17:13:47.969Z,98705.00
2022-08-19T17:16:16.375Z,98699.50
2022-08-19T17:18:45.726Z,98694.09
2022-08-19T17:21:13.449Z,98697.91
2022-08-19T17:23:42.802Z,98696.22
2022-08-19T17:26:17.223Z,98703.19
2022-08-19T17:28:47.258Z,98696.00
2022-08-19T17:31:15.165Z,98703.22
2022-08-19T17:33:42.854Z,98695.88
2022-08-19T17:36:17.807Z,98699.03
2022-08-19T17:38:45.694Z,98708.22
2022-08-19T17:41:13.307Z,98715.69
2022-08-19T17:43:43.839Z,98708.50
2022-08-19T17:46:17.605Z,98704.56
2022-08-19T17:48:51.944Z,98707.19
2022-08-19T17:51:24.781Z,98707.19
2022-08-19T17:53:54.379Z,98714.75
2022-08-19T17:56:23.526Z,98716.59
2022-08-19T17:58:59.592Z,98719.91
2022-08-19T18:01:30.046Z,98725.88
2022-08-19T18:04:11.861Z,98723.34
2022-08-19T18:06:41.645Z,98730.81
2022-08-19T18:09:14.421Z,98732.09
2022-08-19T18:11:43.818Z,98739.72
2022-08-19T18:14:12.831Z,98743.34
2022-08-19T18:16:40.626Z,98749.59
2022-08-19T18:19:09.014Z,98749.19
2022-08-19T18:21:36.736Z,98749.94
2022-08-19T18:24:06.256Z,98759.59
2022-08-19T18:26:34.838Z,98751.06
2022-08-19T18:29:02.935Z,98749.22
2022-08-19T18:31:30.605Z,98759.53
2022-08-19T18:33:58.397Z,98753.16
2022-08-19T18:36:51.955Z,98762.09
2022-08-19T18:39:32.304Z,98762.84
2022-08-19T18:42:17.483Z,98763.97
2022-08-19T18:45:14.235Z,98766.88
2022-08-19T18:47:59.520Z,98781.94
2022-08-19T18:50:27.239Z,98782.47
2022-08-19T18:52:54.839Z,98790.41
2022-08-19T18:55:23.945Z,98796.28
2022-08-19T18:57:51.950Z,98793.25
2022-08-19T19:00:20.745Z,98799.13
2022-08-19T19:02:48.618Z,98805.88
2022-08-19T19:05:16.837Z,98810.59
2022-08-19T19:07:44.562Z,98811.41
2022-08-19T19:10:12.256Z,98809.06
2022-08-19T19:12:44.552Z,98816.28
2022-08-19T19:15:12.321Z,98818.00
2022-08-19T19:17:41.930Z,98829.94
2022-08-19T19:20:10.271Z,98836.28
2022-08-19T19:22:37.893Z,98837.97
2022-08-19T19:25:08.135Z,98841.94
2022-08-19T19:27:35.810Z,98842.44
2022-08-19T19:30:05.548Z,98833.50
2022-08-19T19:32:39.193Z,98851.69
2022-08-19T19:35:09.412Z,98851.66
2022-08-19T19:37:37.059Z,98852.69
2022-08-19T19:40:05.769Z,98854.31
2022-08-19T19:42:33.433Z,98856.13
2022-08-19T19:45:02.952Z,98865.31
2022-08-19T19:47:32.084Z,98862.56
2022-08-19T19:50:16.189Z,98860.47
2022-08-19T19:52:46.766Z,98872.88
2022-08-19T19:55:17.893Z,98879.06
2022-08-19T19:57:46.259Z,98876.72
2022-08-19T20:00:16.398Z,98880.09
2022-08-19T20:02:49.867Z,98886.28
2022-08-19T20:05:20.973Z,98895.28
2022-08-19T20:08:06.081Z,98896.22
2022-08-19T20:10:34.312Z,98890.00
2022-08-19T20:13:03.525Z,98895.75
2022-08-19T20:15:31.419Z,98894.84
2022-08-19T20:18:02.254Z,98899.16
2022-08-19T20:20:30.184Z,98903.00
2022-08-19T20:22:57.790Z,98898.56
2022-08-19T20:25:25.561Z,98907.78
2022-08-19T20:27:53.303Z,98908.38
2022-08-19T20:30:23.397Z,98914.56
2022-08-19T20:32:51.496Z,98908.63
2022-08-19T20:35:22.302Z,98912.63
2022-08-19T20:37:52.868Z,98908.78
2022-08-19T20:40:23.788Z,98907.94
2022-08-19T20:42:51.487Z,98907.31
2022-08-19T20:45:32.709Z,98902.81
2022-08-19T20:48:02.320Z,98904.72
2022-08-19T20:50:31.664Z,98905.25
2022-08-19T20:53:00.553Z,98910.72
2022-08-19T20:55:30.417Z,98905.03
2022-08-19T20:57:58.575Z,98905.56
2022-08-19T21:00:26.272Z,98903.25
2022-08-19T21:02:53.886Z,98908.78
2022-08-19T21:05:21.574Z,98905.72
2022-08-19T21:07:50.688Z,98903.88
2022-08-19T21:10:18.466Z,98903.09
2022-08-19T21:12:46.700Z,98912.25
2022-08-19T21:15:17.900Z,98906.78
2022-08-19T21:17:46.509Z,98914.25
2022-08-19T21:20:14.391Z,98916.25
2022-08-19T21:22:42.038Z,98913.72
2022-08-19T21:25:11.274Z,98917.75
2022-08-19T21:27:39.203Z,98920.19
2022-08-19T21:30:08.893Z,98921.63
2022-08-19T21:35:04.538Z,98927.34
2022-08-19T21:37:33.552Z,98930.88
2022-08-19T21:40:01.589Z,98935.00
2022-08-19T21:42:30.750Z,98931.56
2022-08-19T21:44:58.535Z,98931.63
2022-08-19T21:47:26.698Z,98927.56
2022-08-19T21:49:54.799Z,98936.31
2022-08-19T21:52:23.381Z,98942.53
2022-08-19T21:54:51.007Z,98940.59
2022-08-19T21:57:18.937Z,98936.91
2022-08-19T21:59:47.980Z,98934.28
2022-08-19T22:02:21.559Z,98933.22
2022-08-19T22:04:50.821Z,98936.63
2022-08-19T22:07:19.916Z,98933.03
2022-08-19T22:09:49.420Z,98932.84
2022-08-19T22:12:23.433Z,98939.91
2022-08-19T22:14:53.437Z,98934.03
2022-08-19T22:17:22.294Z,98930.66
2022-08-19T22:19:50.962Z,98938.88
2022-08-19T22:22:22.251Z,98938.13
2022-08-19T22:24:50.272Z,98926.44
2022-08-19T22:27:18.137Z,98930.00
2022-08-19T22:29:46.022Z,98926.22
2022-08-19T22:32:27.122Z,98938.25
2022-08-19T22:34:58.644Z,98934.03
2022-08-19T22:37:27.212Z,98934.19
2022-08-19T22:39:55.250Z,98928.53
2022-08-19T22:42:23.868Z,98925.00
2022-08-19T22:44:51.855Z,98926.16
2022-08-19T22:47:22.868Z,98924.56
2022-08-19T22:49:54.928Z,98929.25
2022-08-19T22:52:22.046Z,98925.88
2022-08-19T22:54:51.988Z,98924.66
2022-08-19T22:57:21.189Z,98920.84
2022-08-19T22:59:50.585Z,98918.75
2022-08-19T23:02:20.180Z,98923.16
2022-08-19T23:04:49.807Z,98928.81
2022-08-19T23:07:18.011Z,98921.88
2022-08-19T23:09:51.528Z,98924.72
2022-08-19T23:12:27.744Z,98920.50
2022-08-19T23:14:56.008Z,98914.84
2022-08-19T23:17:23.826Z,98922.75
2022-08-19T23:19:53.512Z,98908.09
2022-08-19T23:22:21.119Z,98919.25
2022-08-19T23:24:56.222Z,98912.03
2022-08-19T23:27:41.709Z,98905.41
2022-08-19T23:30:29.221Z,98911.19
2022-08-19T23:32:59.019Z,98906.50
2022-08-19T23:35:33.322Z,98911.47
2022-08-19T23:38:01.623Z,98914.16
2022-08-19T23:40:29.392Z,98904.66
2022-08-19T23:42:57.404Z,98916.81
2022-08-19T23:45:27.462Z,98909.19
2022-08-19T23:47:55.392Z,98906.50
2022-08-19T23:50:23.875Z,98903.13
2022-08-19T23:52:55.229Z,98901.00
2022-08-19T23:55:25.492Z,98905.38
2022-08-19T23:57:53.525Z,98908.19
